Winslow, Arizona
Current Conditions -  °F | °C
As of 2:56 PM on Wednesday 22 Oct 2014 (Local Time) from KINW Reporting Station
Clear Clear  
Wind Chill: 24°   Ceiling: Unl
Heat Index: 24°   Visibility: 10mi
Dew Point:   Wind: 3mph
Humidity: 25%   Direction: NA
Pressure: 30.11"   Gusts: NA
Location:  35.02°N, 110.69°W
Report Text: KINW 222156Z AUTO VRB03KT 10SM CLR 24/03 A3011 RMK AO2 SLP144 T02440033
Loading
Personal Weather Stations






























Interactive Weather Map
Tropical Storm Tracking
New forecast layout! Learn more

10-Day Weather Forecast

Advertisements
Track Severe Weather on mobile